sensor_id;sensor_type;location;lat;lon;timestamp;temperature;humidity
32428;DHT22;18882;50.952;4.366;2023-01-10T00:01:19;6.10;99.90
32428;DHT22;18882;50.952;4.366;2023-01-10T00:04:17;6.10;99.90
32428;DHT22;18882;50.952;4.366;2023-01-10T00:07:18;6.10;99.90
32428;DHT22;18882;50.952;4.366;2023-01-10T00:09:51;6.10;99.90
32428;DHT22;18882;50.952;4.366;2023-01-10T00:12:55;6.20;99.90
32428;DHT22;18882;50.952;4.366;2023-01-10T00:15:59;6.30;99.90
32428;DHT22;18882;50.952;4.366;2023-01-10T00:18:47;6.30;99.90
32428;DHT22;18882;50.952;4.366;2023-01-10T00:21:48;6.30;99.90
32428;DHT22;18882;50.952;4.366;2023-01-10T00:24:41;6.40;99.90
32428;DHT22;18882;50.952;4.366;2023-01-10T00:27:41;6.50;99.90
32428;DHT22;18882;50.952;4.366;2023-01-10T00:30:34;6.70;99.90
32428;DHT22;18882;50.952;4.366;2023-01-10T00:33:34;6.70;99.90
32428;DHT22;18882;50.952;4.366;2023-01-10T00:36:12;6.80;99.90
32428;DHT22;18882;50.952;4.366;2023-01-10T00:38:50;6.90;99.90
32428;DHT22;18882;50.952;4.366;2023-01-10T00:41:42;6.90;99.90
32428;DHT22;18882;50.952;4.366;2023-01-10T00:44:49;7.00;99.90
32428;DHT22;18882;50.952;4.366;2023-01-10T00:47:19;7.00;99.90
32428;DHT22;18882;50.952;4.366;2023-01-10T00:50:02;7.10;99.90
32428;DHT22;18882;50.952;4.366;2023-01-10T00:52:34;7.20;99.90
32428;DHT22;18882;50.952;4.366;2023-01-10T00:55:08;7.20;99.90
32428;DHT22;18882;50.952;4.366;2023-01-10T00:57:35;7.20;99.90
32428;DHT22;18882;50.952;4.366;2023-01-10T01:00:11;7.30;99.90
32428;DHT22;18882;50.952;4.366;2023-01-10T01:02:44;7.30;99.90
32428;DHT22;18882;50.952;4.366;2023-01-10T01:05:17;7.30;99.90
32428;DHT22;18882;50.952;4.366;2023-01-10T01:07:50;7.20;99.90
32428;DHT22;18882;50.952;4.366;2023-01-10T01:10:18;7.30;99.90
32428;DHT22;18882;50.952;4.366;2023-01-10T01:12:58;7.30;99.90
32428;DHT22;18882;50.952;4.366;2023-01-10T01:15:27;7.30;99.90
32428;DHT22;18882;50.952;4.366;2023-01-10T01:18:07;7.30;99.90
32428;DHT22;18882;50.952;4.366;2023-01-10T01:20:39;7.20;99.90
32428;DHT22;18882;50.952;4.366;2023-01-10T01:23:15;7.20;99.90
32428;DHT22;18882;50.952;4.366;2023-01-10T01:25:42;7.10;99.90
32428;DHT22;18882;50.952;4.366;2023-01-10T01:28:20;7.20;99.90
32428;DHT22;18882;50.952;4.366;2023-01-10T01:30:48;7.10;99.90
32428;DHT22;18882;50.952;4.366;2023-01-10T01:33:38;6.90;99.90
32428;DHT22;18882;50.952;4.366;2023-01-10T01:36:11;6.90;99.90
32428;DHT22;18882;50.952;4.366;2023-01-10T01:38:39;6.80;99.90
32428;DHT22;18882;50.952;4.366;2023-01-10T01:41:14;6.70;99.90
32428;DHT22;18882;50.952;4.366;2023-01-10T01:44:05;6.70;99.90
32428;DHT22;18882;50.952;4.366;2023-01-10T01:46:35;6.60;99.90
32428;DHT22;18882;50.952;4.366;2023-01-10T01:49:15;6.50;99.90
32428;DHT22;18882;50.952;4.366;2023-01-10T01:51:50;6.40;99.90
32428;DHT22;18882;50.952;4.366;2023-01-10T01:54:21;6.40;99.90
32428;DHT22;18882;50.952;4.366;2023-01-10T01:57:20;6.40;99.90
32428;DHT22;18882;50.952;4.366;2023-01-10T02:00:26;6.50;99.90
32428;DHT22;18882;50.952;4.366;2023-01-10T02:03:39;6.50;99.90
32428;DHT22;18882;50.952;4.366;2023-01-10T02:06:08;6.50;99.90
32428;DHT22;18882;50.952;4.366;2023-01-10T02:08:43;6.50;99.90
32428;DHT22;18882;50.952;4.366;2023-01-10T02:11:20;6.50;99.90
32428;DHT22;18882;50.952;4.366;2023-01-10T02:13:57;6.30;99.90
32428;DHT22;18882;50.952;4.366;2023-01-10T02:16:24;6.40;99.90
32428;DHT22;18882;50.952;4.366;2023-01-10T02:18:50;6.40;99.90
32428;DHT22;18882;50.952;4.366;2023-01-10T02:24:29;6.20;99.90
32428;DHT22;18882;50.952;4.366;2023-01-10T02:27:42;6.20;99.90
32428;DHT22;18882;50.952;4.366;2023-01-10T02:34:11;6.00;99.90
32428;DHT22;18882;50.952;4.366;2023-01-10T02:43:16;6.00;99.90
32428;DHT22;18882;50.952;4.366;2023-01-10T02:46:15;5.90;99.90
32428;DHT22;18882;50.952;4.366;2023-01-10T02:49:11;5.90;99.90
32428;DHT22;18882;50.952;4.366;2023-01-10T02:51:58;5.90;99.90
32428;DHT22;18882;50.952;4.366;2023-01-10T02:55:05;5.80;99.90
32428;DHT22;18882;50.952;4.366;2023-01-10T03:01:00;5.80;99.90
32428;DHT22;18882;50.952;4.366;2023-01-10T03:03:43;5.70;99.90
32428;DHT22;18882;50.952;4.366;2023-01-10T03:06:31;5.70;99.90
32428;DHT22;18882;50.952;4.366;2023-01-10T03:11:48;5.60;99.90
32428;DHT22;18882;50.952;4.366;2023-01-10T03:14:25;5.60;99.90
32428;DHT22;18882;50.952;4.366;2023-01-10T03:17:06;5.60;99.90
32428;DHT22;18882;50.952;4.366;2023-01-10T03:19:41;5.60;99.90
32428;DHT22;18882;50.952;4.366;2023-01-10T03:22:13;5.60;99.90
32428;DHT22;18882;50.952;4.366;2023-01-10T03:24:42;5.60;99.90
32428;DHT22;18882;50.952;4.366;2023-01-10T03:27:19;5.60;99.90
32428;DHT22;18882;50.952;4.366;2023-01-10T03:29:59;5.60;99.90
32428;DHT22;18882;50.952;4.366;2023-01-10T03:32:34;5.50;99.90
32428;DHT22;18882;50.952;4.366;2023-01-10T03:35:40;5.30;99.90
32428;DHT22;18882;50.952;4.366;2023-01-10T03:38:53;5.40;99.90
32428;DHT22;18882;50.952;4.366;2023-01-10T03:42:52;5.40;99.90
32428;DHT22;18882;50.952;4.366;2023-01-10T03:45:20;5.40;99.90
32428;DHT22;18882;50.952;4.366;2023-01-10T03:48:20;5.50;99.90
32428;DHT22;18882;50.952;4.366;2023-01-10T03:51:30;5.50;99.90
32428;DHT22;18882;50.952;4.366;2023-01-10T03:54:23;5.40;99.90
32428;DHT22;18882;50.952;4.366;2023-01-10T03:57:29;5.40;99.90
32428;DHT22;18882;50.952;4.366;2023-01-10T04:00:16;5.30;99.90
32428;DHT22;18882;50.952;4.366;2023-01-10T04:02:49;5.30;99.90
32428;DHT22;18882;50.952;4.366;2023-01-10T04:06:09;5.30;99.90
32428;DHT22;18882;50.952;4.366;2023-01-10T04:09:02;5.30;99.90
32428;DHT22;18882;50.952;4.366;2023-01-10T04:11:47;5.20;99.90
32428;DHT22;18882;50.952;4.366;2023-01-10T04:14:13;5.20;99.90
32428;DHT22;18882;50.952;4.366;2023-01-10T04:16:39;5.30;99.90
32428;DHT22;18882;50.952;4.366;2023-01-10T04:19:12;5.30;99.90
32428;DHT22;18882;50.952;4.366;2023-01-10T04:21:50;5.30;99.90
32428;DHT22;18882;50.952;4.366;2023-01-10T04:24:39;5.20;99.90
32428;DHT22;18882;50.952;4.366;2023-01-10T04:27:41;5.10;99.90
32428;DHT22;18882;50.952;4.366;2023-01-10T04:30:28;5.20;99.90
32428;DHT22;18882;50.952;4.366;2023-01-10T04:33:32;5.20;99.90
32428;DHT22;18882;50.952;4.366;2023-01-10T04:36:58;5.30;99.90
32428;DHT22;18882;50.952;4.366;2023-01-10T04:39:42;5.30;99.90
32428;DHT22;18882;50.952;4.366;2023-01-10T04:42:47;5.20;99.90
32428;DHT22;18882;50.952;4.366;2023-01-10T04:45:25;5.30;99.90
32428;DHT22;18882;50.952;4.366;2023-01-10T04:48:08;5.20;99.90
32428;DHT22;18882;50.952;4.366;2023-01-10T04:51:13;5.20;99.90
32428;DHT22;18882;50.952;4.366;2023-01-10T04:53:42;5.10;99.90
32428;DHT22;18882;50.952;4.366;2023-01-10T04:56:32;5.20;99.90
32428;DHT22;18882;50.952;4.366;2023-01-10T04:59:11;5.20;99.90
32428;DHT22;18882;50.952;4.366;2023-01-10T05:02:09;5.10;99.90
32428;DHT22;18882;50.952;4.366;2023-01-10T05:04:42;5.20;99.90
32428;DHT22;18882;50.952;4.366;2023-01-10T05:07:33;5.10;99.90
32428;DHT22;18882;50.952;4.366;2023-01-10T05:10:12;5.20;99.90
32428;DHT22;18882;50.952;4.366;2023-01-10T05:13:23;5.20;99.90
32428;DHT22;18882;50.952;4.366;2023-01-10T05:15:59;5.20;99.90
32428;DHT22;18882;50.952;4.366;2023-01-10T05:21:22;5.20;99.90
32428;DHT22;18882;50.952;4.366;2023-01-10T05:24:00;5.20;99.90
32428;DHT22;18882;50.952;4.366;2023-01-10T05:26:35;5.20;99.90
32428;DHT22;18882;50.952;4.366;2023-01-10T05:29:01;5.20;99.90
32428;DHT22;18882;50.952;4.366;2023-01-10T05:31:27;5.20;99.90
32428;DHT22;18882;50.952;4.366;2023-01-10T05:34:16;5.20;99.90
32428;DHT22;18882;50.952;4.366;2023-01-10T05:36:50;5.10;99.90
32428;DHT22;18882;50.952;4.366;2023-01-10T06:38:26;4.90;99.90
32428;DHT22;18882;50.952;4.366;2023-01-10T06:41:11;4.90;99.90
32428;DHT22;18882;50.952;4.366;2023-01-10T06:43:48;4.90;99.90
32428;DHT22;18882;50.952;4.366;2023-01-10T06:46:24;4.90;99.90
32428;DHT22;18882;50.952;4.366;2023-01-10T06:49:02;4.80;99.90
32428;DHT22;18882;50.952;4.366;2023-01-10T06:51:30;4.70;99.90
32428;DHT22;18882;50.952;4.366;2023-01-10T06:53:57;4.80;99.90
32428;DHT22;18882;50.952;4.366;2023-01-10T06:56:51;4.80;99.90
32428;DHT22;18882;50.952;4.366;2023-01-10T06:59:22;4.90;99.90
32428;DHT22;18882;50.952;4.366;2023-01-10T07:01:52;4.90;99.90
32428;DHT22;18882;50.952;4.366;2023-01-10T07:04:53;4.90;99.90
32428;DHT22;18882;50.952;4.366;2023-01-10T07:07:22;4.80;99.90
32428;DHT22;18882;50.952;4.366;2023-01-10T07:09:56;4.90;99.90
32428;DHT22;18882;50.952;4.366;2023-01-10T07:12:27;4.80;99.90
32428;DHT22;18882;50.952;4.366;2023-01-10T07:15:03;4.80;99.90
32428;DHT22;18882;50.952;4.366;2023-01-10T07:17:40;4.80;99.90
32428;DHT22;18882;50.952;4.366;2023-01-10T07:20:20;4.80;99.90
32428;DHT22;18882;50.952;4.366;2023-01-10T07:36:33;4.70;99.90
32428;DHT22;18882;50.952;4.366;2023-01-10T08:02:34;4.90;99.90
32428;DHT22;18882;50.952;4.366;2023-01-10T13:37:36;7.60;99.90
32428;DHT22;18882;50.952;4.366;2023-01-10T13:40:04;7.60;99.90
32428;DHT22;18882;50.952;4.366;2023-01-10T13:42:41;7.60;99.90
32428;DHT22;18882;50.952;4.366;2023-01-10T13:45:37;7.60;99.90
32428;DHT22;18882;50.952;4.366;2023-01-10T13:55:19;7.50;99.90
32428;DHT22;18882;50.952;4.366;2023-01-10T13:57:57;7.60;99.90
32428;DHT22;18882;50.952;4.366;2023-01-10T14:00:44;7.50;99.90
